createdAt,value
2017-10-14T00:02:25.052Z,16.40
2017-10-14T00:04:52.543Z,16.40
2017-10-14T00:07:20.787Z,16.40
2017-10-14T00:09:49.049Z,16.40
2017-10-14T00:12:16.527Z,16.40
2017-10-14T00:14:45.507Z,16.40
2017-10-14T00:17:12.992Z,16.40
2017-10-14T00:19:41.231Z,16.50
2017-10-14T00:22:08.820Z,16.40
2017-10-14T00:24:37.059Z,16.50
2017-10-14T00:27:04.527Z,16.40
2017-10-14T00:29:32.012Z,16.50
2017-10-14T00:32:00.258Z,16.40
2017-10-14T00:34:27.759Z,16.40
2017-10-14T00:36:55.999Z,16.30
2017-10-14T00:39:23.477Z,16.30
2017-10-14T00:41:52.468Z,16.20
2017-10-14T00:44:19.944Z,16.20
2017-10-14T00:46:48.208Z,16.10
2017-10-14T00:49:16.452Z,16.10
2017-10-14T00:51:43.928Z,16.10
2017-10-14T00:54:11.411Z,16.10
2017-10-14T00:56:39.647Z,16.00
2017-10-14T00:59:07.136Z,16.00
2017-10-14T01:01:34.604Z,16.00
2017-10-14T01:04:02.840Z,15.90
2017-10-14T01:06:30.323Z,16.00
2017-10-14T01:08:57.796Z,15.90
2017-10-14T01:11:26.070Z,15.90
2017-10-14T01:13:54.312Z,15.90
2017-10-14T01:16:21.796Z,15.90
2017-10-14T01:18:50.052Z,15.80
2017-10-14T01:21:17.530Z,15.80
2017-10-14T01:23:45.808Z,15.80
2017-10-14T01:26:14.050Z,15.80
2017-10-14T01:28:41.529Z,15.80
2017-10-14T01:31:09.020Z,15.80
2017-10-14T01:33:37.260Z,15.70
2017-10-14T01:36:04.748Z,15.70
2017-10-14T01:38:33.003Z,15.70
2017-10-14T01:41:01.988Z,15.60
2017-10-14T01:43:29.476Z,15.60
2017-10-14T01:45:57.720Z,15.60
2017-10-14T01:48:25.301Z,15.60
2017-10-14T01:50:52.776Z,15.60
2017-10-14T01:53:21.016Z,15.60
2017-10-14T01:55:48.504Z,15.60
2017-10-14T01:58:16.744Z,15.50
2017-10-14T02:00:44.235Z,15.60
2017-10-14T02:03:12.471Z,15.50
2017-10-14T02:05:39.939Z,15.50
2017-10-14T02:08:07.422Z,15.50
2017-10-14T02:10:35.668Z,15.50
2017-10-14T02:13:03.158Z,15.50
2017-10-14T02:15:31.399Z,15.50
2017-10-14T02:17:58.868Z,15.40
2017-10-14T02:20:26.371Z,15.50
2017-10-14T02:22:53.868Z,15.50
2017-10-14T02:25:21.362Z,15.40
2017-10-14T02:27:49.603Z,15.40
2017-10-14T02:30:17.080Z,15.40
2017-10-14T02:32:44.568Z,15.40
2017-10-14T02:35:12.805Z,15.30
2017-10-14T02:37:40.328Z,15.20
2017-10-14T02:40:07.800Z,15.20
2017-10-14T02:42:35.286Z,15.20
2017-10-14T02:45:02.772Z,15.10
2017-10-14T02:47:31.040Z,15.00
2017-10-14T02:49:59.312Z,15.00
2017-10-14T02:52:28.301Z,14.90
2017-10-14T02:54:55.772Z,14.90
2017-10-14T02:57:24.028Z,14.90
2017-10-14T02:59:51.503Z,14.90
2017-10-14T03:02:19.778Z,14.90
2017-10-14T03:04:48.020Z,14.90
2017-10-14T03:07:15.506Z,14.90
2017-10-14T03:09:42.996Z,14.90
2017-10-14T03:12:11.243Z,14.80
2017-10-14T03:14:39.512Z,14.80
2017-10-14T03:17:06.995Z,14.80
2017-10-14T03:19:35.240Z,14.80
2017-10-14T03:22:02.724Z,14.80
2017-10-14T03:24:30.971Z,14.70
2017-10-14T03:26:58.469Z,14.70
2017-10-14T03:29:26.703Z,14.70
2017-10-14T03:31:54.187Z,14.70
2017-10-14T03:34:22.448Z,14.70
2017-10-14T03:36:49.924Z,14.60
2017-10-14T03:39:18.203Z,14.60
2017-10-14T03:41:46.441Z,14.60
2017-10-14T03:44:13.919Z,14.50
2017-10-14T03:46:41.407Z,14.50
2017-10-14T03:49:09.649Z,14.50
2017-10-14T03:51:37.138Z,14.50
2017-10-14T03:54:05.379Z,14.40
2017-10-14T03:56:32.857Z,14.50
2017-10-14T03:59:01.112Z,14.40
2017-10-14T04:01:28.594Z,14.40
2017-10-14T04:03:56.876Z,14.40
2017-10-14T04:06:25.120Z,14.40
2017-10-14T04:08:52.600Z,14.40
2017-10-14T04:11:20.093Z,14.40
2017-10-14T04:13:47.575Z,14.40
2017-10-14T04:16:15.089Z,14.40
2017-10-14T08:06:46.237Z,15.50
2017-10-14T08:09:13.741Z,15.50
2017-10-14T08:11:41.221Z,15.60
2017-10-14T08:14:09.460Z,15.90
2017-10-14T08:16:36.984Z,15.90
2017-10-14T08:19:04.464Z,16.00
2017-10-14T08:21:31.963Z,16.10
2017-10-14T08:23:59.436Z,16.20
2017-10-14T08:26:27.681Z,16.40
2017-10-14T08:28:55.180Z,16.40
2017-10-14T08:31:22.660Z,16.50
2017-10-14T08:33:50.156Z,16.60
2017-10-14T08:36:17.635Z,16.80
2017-10-14T08:38:45.884Z,17.00
2017-10-14T08:41:13.391Z,17.00
2017-10-14T08:43:41.632Z,17.20
2017-10-14T08:46:09.156Z,17.20
2017-10-14T08:48:36.635Z,17.30
2017-10-14T08:51:04.128Z,17.40
2017-10-14T08:53:32.392Z,17.50
2017-10-14T08:56:00.637Z,17.60
2017-10-14T08:58:28.135Z,17.60
2017-10-14T09:00:56.375Z,17.80
2017-10-14T09:03:23.862Z,17.80
2017-10-14T09:05:52.136Z,18.00
2017-10-14T09:08:19.611Z,18.00
2017-10-14T09:10:47.876Z,18.20
2017-10-14T09:13:15.355Z,18.20
2017-10-14T09:15:43.595Z,18.40
2017-10-14T09:18:11.105Z,18.30
2017-10-14T09:20:38.581Z,18.50
2017-10-14T09:23:06.079Z,18.60
2017-10-14T09:25:33.576Z,18.60
2017-10-14T09:28:01.074Z,18.80
2017-10-14T09:30:28.603Z,18.80
2017-10-14T09:32:56.092Z,18.90
2017-10-14T09:35:23.591Z,19.10
2017-10-14T09:37:51.839Z,19.30
2017-10-14T09:40:19.323Z,19.20
2017-10-14T09:42:46.842Z,19.30
2017-10-14T09:45:14.317Z,19.30
2017-10-14T09:47:41.827Z,19.40
2017-10-14T09:50:09.308Z,19.40
2017-10-14T09:52:36.803Z,19.50
2017-10-14T09:55:04.305Z,19.70
2017-10-14T09:57:31.804Z,19.80
2017-10-14T09:59:59.331Z,19.90
2017-10-14T10:02:26.882Z,19.90
2017-10-14T10:04:54.377Z,20.00
2017-10-14T10:07:21.875Z,20.10
2017-10-14T10:09:50.136Z,20.30
2017-10-14T10:12:17.649Z,20.20
2017-10-14T10:14:45.127Z,20.40
2017-10-14T10:17:12.602Z,20.40
2017-10-14T10:19:40.089Z,20.50
2017-10-14T10:22:08.336Z,20.70
2017-10-14T10:24:37.360Z,20.80
2017-10-14T10:27:05.600Z,20.90
2017-10-14T10:29:33.072Z,20.90
2017-10-14T10:32:00.584Z,21.00
2017-10-14T10:34:28.056Z,21.00
2017-10-14T10:36:55.570Z,21.00
2017-10-14T10:39:23.053Z,21.00
2017-10-14T10:41:50.533Z,21.00
2017-10-14T10:44:18.024Z,21.10
2017-10-14T10:46:45.505Z,21.20
2017-10-14T10:49:13.767Z,21.40
2017-10-14T10:51:42.015Z,21.50
2017-10-14T10:54:09.520Z,21.50
2017-10-14T10:56:37.007Z,21.50
2017-10-14T10:59:04.515Z,21.60
2017-10-14T11:01:32.771Z,21.50
2017-10-14T11:04:00.251Z,21.50
2017-10-14T11:06:28.507Z,21.60
2017-10-14T11:08:56.084Z,21.60
2017-10-14T11:11:23.552Z,21.70
2017-10-14T11:13:51.818Z,21.80
2017-10-14T11:16:20.072Z,21.70
2017-10-14T11:18:47.549Z,21.70
2017-10-14T11:21:15.056Z,21.70
2017-10-14T11:23:42.535Z,21.90
2017-10-14T11:26:10.043Z,22.00
2017-10-14T11:28:38.299Z,22.00
2017-10-14T11:31:05.870Z,22.00
2017-10-14T11:33:34.128Z,22.00
2017-10-14T11:36:03.115Z,22.10
2017-10-14T11:38:30.621Z,22.10
2017-10-14T11:40:58.089Z,22.10
2017-10-14T11:43:25.572Z,22.20
2017-10-14T11:45:53.064Z,22.30
2017-10-14T11:48:20.537Z,22.50
2017-10-14T11:50:48.804Z,22.60
2017-10-14T11:53:17.071Z,22.70
2017-10-14T11:55:45.499Z,22.70
2017-10-14T11:58:17.408Z,22.70
2017-10-14T12:00:44.879Z,22.80
2017-10-14T12:03:12.380Z,22.80
2017-10-14T12:05:39.871Z,22.80
2017-10-14T12:08:07.352Z,23.10
2017-10-14T12:10:35.616Z,23.30
2017-10-14T12:13:05.735Z,23.30
2017-10-14T12:15:33.251Z,23.40
2017-10-14T12:18:00.720Z,23.40
2017-10-14T12:20:28.204Z,23.40
2017-10-14T12:22:55.702Z,23.40
2017-10-14T12:25:23.943Z,23.40
2017-10-14T12:27:51.444Z,23.40
2017-10-14T12:30:19.019Z,23.60
2017-10-14T12:32:46.504Z,23.70
2017-10-14T12:35:13.991Z,23.90
2017-10-14T12:37:41.463Z,24.00
2017-10-14T12:40:09.739Z,24.10
2017-10-14T12:42:37.989Z,24.30
2017-10-14T12:45:05.464Z,24.30
2017-10-14T12:47:32.957Z,24.40
2017-10-14T12:50:00.432Z,24.50
2017-10-14T12:52:27.947Z,24.50
2017-10-14T12:54:56.216Z,24.70
2017-10-14T12:57:25.207Z,24.60
2017-10-14T12:59:52.703Z,24.60
2017-10-14T13:02:20.176Z,24.70
2017-10-14T13:04:47.691Z,24.80
2017-10-14T13:07:15.932Z,25.10
2017-10-14T13:09:43.403Z,25.10
2017-10-14T13:12:10.891Z,25.20
2017-10-14T13:14:39.131Z,25.50
2017-10-14T13:17:06.624Z,25.50
2017-10-14T13:19:34.938Z,25.80
2017-10-14T13:22:02.413Z,25.70
2017-10-14T13:24:29.904Z,26.00
2017-10-14T13:26:57.372Z,26.30
2017-10-14T13:29:25.672Z,26.60
2017-10-14T13:31:53.162Z,26.60
2017-10-14T13:34:20.656Z,26.80
2017-10-14T13:36:48.147Z,27.10
2017-10-14T13:39:15.624Z,26.90
2017-10-14T13:41:43.120Z,27.10
2017-10-14T13:44:10.608Z,27.10
2017-10-14T13:46:38.852Z,27.50
2017-10-14T13:49:06.331Z,27.50
2017-10-14T13:51:34.576Z,27.30
2017-10-14T13:54:02.082Z,27.30
2017-10-14T13:56:29.569Z,27.30
2017-10-14T13:58:57.051Z,27.50
2017-10-14T14:01:24.578Z,27.80
2017-10-14T14:03:52.061Z,27.90
2017-10-14T14:06:19.596Z,28.10
2017-10-14T14:08:47.088Z,28.20
2017-10-14T14:11:14.559Z,28.10
2017-10-14T14:13:42.051Z,28.00
2017-10-14T14:16:10.292Z,27.50
2017-10-14T14:18:37.783Z,27.40
2017-10-14T14:21:06.023Z,26.20
2017-10-14T14:23:33.498Z,26.20
2017-10-14T14:26:01.620Z,25.70
2017-10-14T14:28:29.124Z,25.10
2017-10-14T14:30:56.618Z,24.70
2017-10-14T14:33:24.115Z,24.40
2017-10-14T14:35:51.725Z,24.10
2017-10-14T14:38:19.984Z,23.60
2017-10-14T14:40:49.016Z,23.60
2017-10-14T14:43:16.508Z,23.50
2017-10-14T14:45:43.981Z,23.30
2017-10-14T14:48:11.453Z,23.20
2017-10-14T14:50:39.760Z,23.00
2017-10-14T14:53:07.260Z,23.00
2017-10-14T14:55:34.790Z,22.90
2017-10-14T14:58:02.276Z,22.90
2017-10-14T15:00:29.753Z,22.80
2017-10-14T15:02:57.249Z,22.80
2017-10-14T15:05:24.727Z,22.70
2017-10-14T15:07:52.243Z,22.70
2017-10-14T15:10:19.719Z,22.60
2017-10-14T17:38:04.248Z,20.50
2017-10-14T17:40:31.846Z,20.40
2017-10-14T17:42:59.332Z,20.40
2017-10-14T17:45:26.804Z,20.30
2017-10-14T17:47:54.299Z,20.20
2017-10-14T17:50:22.560Z,20.00
2017-10-14T17:52:50.094Z,20.00
2017-10-14T17:55:17.573Z,20.00
2017-10-14T17:57:45.048Z,20.00
2017-10-14T18:00:12.536Z,20.00
2017-10-14T18:02:40.008Z,19.90
2017-10-14T18:05:07.527Z,19.90
2017-10-14T18:07:35.768Z,19.80
2017-10-14T18:10:03.241Z,19.80
2017-10-14T18:12:30.728Z,19.70
2017-10-14T18:14:58.971Z,19.60
2017-10-14T18:17:26.461Z,19.60
2017-10-14T18:19:54.698Z,19.50
2017-10-14T18:22:22.168Z,19.40
2017-10-14T18:24:49.668Z,19.40
2017-10-14T18:27:17.138Z,19.40
2017-10-14T18:29:44.628Z,19.30
2017-10-14T18:32:12.107Z,19.30
2017-10-14T18:34:39.584Z,19.20
2017-10-14T18:37:07.840Z,19.20
2017-10-14T18:39:36.079Z,19.10
2017-10-14T18:42:03.589Z,19.10
2017-10-14T18:44:31.839Z,19.10
2017-10-14T18:46:59.308Z,19.10
2017-10-14T18:49:26.800Z,19.00
2017-10-14T18:51:55.032Z,19.00
2017-10-14T18:54:22.528Z,18.90
2017-10-14T18:56:50.768Z,18.90
2017-10-14T18:59:18.245Z,18.90
2017-10-14T19:01:45.739Z,18.80
2017-10-14T19:04:13.218Z,18.80
2017-10-14T19:06:40.744Z,18.80
2017-10-14T19:09:08.992Z,18.70
2017-10-14T19:11:36.480Z,18.70
2017-10-14T19:14:04.736Z,18.60
2017-10-14T19:16:32.219Z,18.70
2017-10-14T19:18:59.732Z,18.70
2017-10-14T19:21:27.262Z,18.70
2017-10-14T19:23:54.736Z,18.70
2017-10-14T19:26:22.228Z,18.60
2017-10-14T19:28:49.708Z,18.60
2017-10-14T19:31:17.971Z,18.50
2017-10-14T19:33:46.213Z,18.50
2017-10-14T19:36:13.742Z,18.50
2017-10-14T19:38:41.248Z,18.50
2017-10-14T19:41:09.492Z,18.30
2017-10-14T19:43:36.991Z,18.30
2017-10-14T19:46:05.239Z,18.20
2017-10-14T19:48:32.711Z,18.20
2017-10-14T19:51:00.292Z,18.20
2017-10-14T19:53:28.532Z,18.10
2017-10-14T19:55:56.041Z,18.10
2017-10-14T19:58:24.284Z,18.00
2017-10-14T20:00:52.540Z,18.00
2017-10-14T20:03:20.033Z,18.00
2017-10-14T20:05:47.509Z,18.00
2017-10-14T20:08:15.772Z,17.90
2017-10-14T20:10:44.020Z,17.90
2017-10-14T20:13:11.500Z,17.90
2017-10-14T20:15:39.079Z,18.10
2017-10-14T20:18:07.320Z,18.10
2017-10-14T20:20:34.816Z,18.20
2017-10-14T20:23:03.067Z,18.30
2017-10-14T20:25:31.250Z,18.20
2017-10-14T20:27:59.512Z,18.20
2017-10-14T20:30:27.753Z,18.10
2017-10-14T20:32:55.263Z,18.10
2017-10-14T20:35:23.507Z,18.00
2017-10-14T20:37:50.993Z,18.00
2017-10-14T20:40:18.488Z,18.00
2017-10-14T20:42:45.965Z,17.90
2017-10-14T20:45:13.464Z,17.80
2017-10-14T20:47:40.941Z,17.80
2017-10-14T20:50:08.424Z,17.70
2017-10-14T20:52:36.684Z,17.70
2017-10-14T20:55:04.940Z,17.60
2017-10-14T20:57:33.204Z,17.60
2017-10-14T21:00:00.672Z,17.60
2017-10-14T21:02:28.147Z,17.50
2017-10-14T21:04:56.432Z,17.50
2017-10-14T21:07:23.905Z,17.50
2017-10-14T21:09:51.450Z,17.50
2017-10-14T21:12:18.981Z,17.40
2017-10-14T21:14:47.636Z,17.40
2017-10-14T21:17:15.136Z,17.40
2017-10-14T21:19:43.374Z,17.30
2017-10-14T21:22:10.897Z,17.30
2017-10-14T21:24:38.375Z,17.30
2017-10-14T21:27:05.851Z,17.30
2017-10-14T21:29:33.344Z,17.20
2017-10-14T21:32:01.594Z,17.20
2017-10-14T21:34:29.103Z,17.10
2017-10-14T21:36:56.583Z,17.10
2017-10-14T21:39:24.053Z,17.10
2017-10-14T21:41:51.536Z,17.10
2017-10-14T21:44:19.785Z,17.00
